Change Date:Time:

Metar of : 5/19/2022 2200UTC
24%92%62%81%43%41%88%34%
 Station  Wind Direction  Speed  Visibility Clouds Temperature Pressure Humidity
OPAK 36004KT 6000 SCT040 SCT100 29/12 Q0998 35%
ATTOCK N 04KT 6000m Partly Cloudy 29oC 998hp 35%
OPBW 23008KT 3000 HZ NSC 33/17 Q0996 39%
BAHAWALPUR A/P SW 08KT 3000m Haze 33oC 996hp 39%
OPBKN 192200Z 23002KT CAVOK 29/07 RH.24%
BAR KHAN SW 02KT Cloudy 29oC 24%
OPBKR 31004KT 5000 DU NSC 32/16 38%
BHAKKAR NW 04KT 5000m Dust Haze 32oC 38%
OPCK 00000KT 8000 SCT040 26/15 50%
CHAKWAL --- 00KT 8000m Partly Cloudy 26oC 50%
OPDG 18006KT 4000 HZ NSC 34/13 Q0994 27%
D G KHAN S 06KT 4000m Haze 34oC 994hp 27%
OPFA 36004KT 4000 HZ FEW040 SCT100 32/15 Q0998 NOSIG 36%
FAISALABAD N 04KT 4000m Partly Cloudy 32oC 998hp 36%
OPGP 00000KT 8000 NSC 22/14 60%
GARHI DOPATTA --- 00KT 8000m Clear 22oC 60%
OPGD 192200Z 00000KT 2000 BR NSC 27/26 Q1002 RH92%
GAWADAR --- 00KT 2000m Mist 27oC 1002hp 92%
OPGW 27002KT 9999 SCT110 29/16 46%
GUJRANWALA W 02KT 9999m Partly Cloudy 29oC 46%
OPUG 00000KT 5000 HZ NSC 28/15 47%
GUJRAT --- 00KT 5000m Haze 28oC 47%
OPHD 36004KT 7000 SCT110 27/16 50%
HAFIZABAD N 04KT 7000m Partly Cloudy 27oC 50%
OPKD 192200Z 21006KT 4000 DU NSC 27/21 Q1000 RH 70%
HYDERABAD SSW 06KT 4000m Dust Haze 27oC 1000hp 70%
OPIS 36012KT 5000 VCTS FEW030CB SCT040 BKN100 25/14 Q1003 TEMPO H 49%
ISLAMABAD A/P N 12KT 5000m Partly Cloudy 25oC 1003hp 49%
OPHQ 13004KT 7000 VCTS FEW025CB FEW040 BKN100 24/16 Q1002 RH62%
ISLAMABAD CITY SE 04KT 7000m Partly Cloudy 24oC 1002hp 62%
OPJG 00000KT 5000 FU NSC 30/19 Q0996 53%
JHANG --- 00KT 5000m Smoke Haze 30oC 996hp 53%
OPJM 00000KT 5000 FU SC120 27/15 49%
JHELUM --- 00KT 5000m Smoke Haze 27oC 49%
OPJBD 05008KT 4000 FU NSC 28/19 57%
JOHARABAD NE 08KT 4000m Smoke Haze 28oC 57%
OPKC 192200Z 25006KT 5000 FU BKN020 29/26 Q1001 RH81%
KARACHI WSW 06KT 5000m Cloudy 29oC 1001hp 81%
OPKRL 36002KT 5000 HZ NSC 30/12 34%
KAROR (LAYYAH) N 02KT 5000m Haze 30oC 34%
OPKS 36002KT 4000 HZ NSC 31/16 41%
KASUR N 02KT 4000m Haze 31oC 41%
OPKW 23004KT 4000 FU NSC 28/21 Q0995 64%
KHANEWAL SW 04KT 4000m Smoke Haze 28oC 995hp 64%
OPKP 18002KT 4000 HZ NSC 33/14 32%
KHANPUR S 02KT 4000m Haze 33oC 32%
OPKAD 00000KT 6000 NSC 32/18 Q0995 43%
KOT ADDU --- 00KT 6000m Clear 32oC 995hp 43%
OPKL 05004KT 6000 NSC 28/11 36%
KOTLI NE 04KT 6000m Clear 28oC 36%
OPLA 07008KT 4000 HZ FEW100 31/16 Q0998 A2948 NOSIG 42%
LAHORE A/P ENE 08KT 4000m Partly Cloudy 31oC 998hp 42%
OPMB 05002KT 5000 TSRA FEW030CB SCT040 OVC100 29/14 Q1000 36%H/RAIN TRACE
MANDI BAHAUDDIN NE 02KT 5000m Shower Rain 29oC 1000hp
OPMA 31036KT 1000 DS SCT040 BKN100 25/15 Q1003 54% MAX WIND 31044KT AT 2123UTC
MANGLA NW 44KT 1000m Shower Rain 25oC 1003hp 54%
OPMJ 192200Z 13004KT 6000 NSC 32/18 Q0997 RH43% NO SIG
MOHENJO DARO SE 04KT Shower Rain 32oC 997hp 43%
OPMT 27012KT 4000 DRDU NSC 36/09 Q0996 TEMPO U 20%
MULTAN A/P W 12KT 4000m Shower Rain 36oC 996hp 20%
OPME 05004KT 6000 BKN030 OVC100 13/11 89% RERA H/RAIN 3.0 MM
MURREE NE 04KT 6000m Shower Rain 13oC 89%
OPMF 00000KT 6000 SCT033 BKN100 22/17 75%
MUZAFFARABAD A/P --- 00KT 6000m Shower Rain 22oC 75%
OPNL 00000KT 3000 HZ FEW040 SCT100 28/14 Q0997 42%
NAROWAL --- 00KT 3000m Shower Rain 28oC 997hp 42%
OPNH 192200Z 13504KT 4000 HZ NSC 29/22 Q0999.1 IN 29.50 RH68%NOSIG
NAWABSHAH SE 04KT 4000m Shower Rain 29oC
OPNK 192200Z 31502KT 4000 DU 30/M03 Q0998 R.H. 12%
NOKKUNDI NW 02KT 4000m Shower Rain 30oC 998hp 12%
OPNPT 00000KT 8000 NSC 28/18 51%
NOOR PUR THAL --- 00KT 8000m Shower Rain 28oC 51%
OPOK 05004KT 4000 FU NSC 29/19 Q0997 55%
OKARA NE 04KT 4000m Shower Rain 29oC 997hp 55%
OPPG 192200Z 00000KT 6000 NSC 26/12 Q1010 RH41%
PANJGUR --- 00KT 6000m Shower Rain 26oC 1010hp 41%
OPPI 192200Z 23002KT3000 BRNSC26/24 Q1003 RH88%
PASNI Mist 26oC 1003hp 88%
OPRK 00000KT 6000 NSC 31/17 Q0996 43%
R Y KHAN --- 00KT 6000m Shower Rain 31oC 996hp 43%
OPRT 00000KT 6000 SCT040 13/10 Q1023 84%
RAWALAKOT --- 00KT 6000m Shower Rain 13oC 1023hp 84%
OPSW 00000KT 3000 FU NSC 30/21 Q0997 62%
SAHIWAL --- 00KT 3000m Shower Rain 30oC 997hp 62%
OPQT 23004KT 6000 NSC 21/M06 Q1014 RH 15%
SAMUNGLI SW 04KT 6000m Shower Rain 21oC 1014hp 15%
OPSG 05002KT 5000 HZ SCT 100 29/14 40%
SARGODHA CITY NE 02KT 5000m Shower Rain 29oC 40%
OPST 05004KT 4000 HZ SCT040 30/08 Q0999 NOSIG 26%
SIALKOT A/P NE 04KT 4000m Shower Rain 30oC 999hp 26%
OPTS 00000KT 5000 HZ NSC 32/18 43%
T T SINGH --- 00KT 5000m Shower Rain 32oC 43%
OPTU 192200Z 00000KT 4000 HZ NSC 30/12 Q1002 RH34%
TURBAT --- 00KT 4000m Shower Rain 30oC 1002hp 34%